Time;durP1;ratioP1;P1;durP2;ratioP2;P2;SDS_P1;SDS_P2;PMS_P1;PMS_P2;Temp;Humidity;BMP_temperature;BMP_pressure;BME280_temperature;BME280_humidity;BME280_pressure;Samples;Min_cycle;Max_cycle;Signal;HPM_P1;HPM_P2
2021/12/31 00:00:10;;;;;;;20.40;11.15;;;;;;;7.96;77.54;99744.59;4245526;33;33908;-96
2021/12/31 00:03:49;;;;;;;21.87;11.57;;;;;;;7.51;79.66;99733.91;4430371;28;20093;-96
2021/12/31 00:07:15;;;;;;;21.73;11.18;;;;;;;7.61;78.90;99747.81;4364540;28;35117;31
2021/12/31 00:17:47;;;;;;;23.65;11.30;;;;;;;7.53;79.47;99765.00;4469375;28;20113;-96
2021/12/31 00:21:51;;;;;;;29.10;15.02;;;;;;;7.48;78.49;99749.44;4526453;28;34368;-96
2021/12/31 00:25:03;;;;;;;24.65;12.52;;;;;;;8.22;76.03;99749.06;4287920;28;34907;-96
2021/12/31 00:28:19;;;;;;;24.52;13.02;;;;;;;7.00;81.51;99759.31;4618786;28;20135;-96
2021/12/31 00:31:23;;;;;;;28.48;13.23;;;;;;;7.63;79.39;99748.69;4324506;27;34953;-96
2021/12/31 00:34:32;;;;;;;26.35;12.85;;;;;;;6.68;83.71;99742.59;4297981;33;36176;-96
2021/12/31 00:40:57;;;;;;;21.75;11.70;;;;;;;7.14;81.18;99749.13;4801366;27;20560;-96
2021/12/31 00:43:28;;;;;;;17.50;9.98;;;;;;;7.64;79.56;99750.44;4380917;28;32216;-96
2021/12/31 00:46:01;;;;;;;22.25;11.70;;;;;;;8.33;75.99;99744.81;4368350;28;34705;-96
2021/12/31 00:49:03;;;;;;;21.90;11.52;;;;;;;8.62;74.48;99741.50;4296508;33;35552;-96
2021/12/31 00:52:17;;;;;;;30.37;15.18;;;;;;;7.33;79.17;99752.75;4395894;27;31556;31
2021/12/31 00:55:20;;;;;;;33.47;15.32;;;;;;;7.51;79.65;99756.34;4339022;28;20100;-96
2021/12/31 00:59:35;;;;;;;27.15;13.62;;;;;;;7.60;79.47;99756.44;4324013;33;34123;-96
2021/12/31 01:10:24;;;;;;;23.08;13.05;;;;;;;7.39;81.01;99759.69;4606798;28;20081;-96
2021/12/31 01:13:59;;;;;;;23.85;12.00;;;;;;;6.94;83.77;99767.03;4545014;27;36352;31
2021/12/31 01:21:13;;;;;;;22.37;10.73;;;;;;;8.07;79.89;99755.91;4296847;33;33502;-96
2021/12/31 01:24:52;;;;;;;25.15;12.32;;;;;;;8.44;75.59;99756.13;4303294;33;34854;-96
2021/12/31 01:28:14;;;;;;;19.10;10.90;;;;;;;8.23;77.35;99768.97;4277846;33;35910;-96
2021/12/31 01:31:29;;;;;;;25.60;11.07;;;;;;;8.56;75.02;99762.22;4297192;33;20160;-96
2021/12/31 01:34:01;;;;;;;21.87;11.35;;;;;;;7.81;78.53;99767.81;4299248;33;31817;-96
2021/12/31 01:36:33;;;;;;;39.95;20.05;;;;;;;8.01;77.66;99758.44;4301796;33;32715;-96
2021/12/31 01:39:07;;;;;;;27.90;15.02;;;;;;;7.64;79.44;99773.75;4303957;27;34077;-96
2021/12/31 01:41:36;;;;;;;33.03;16.10;;;;;;;8.32;76.44;99763.81;4292059;28;34486;-96
2021/12/31 01:44:06;;;;;;;28.92;12.45;;;;;;;7.83;78.47;99764.37;4289930;33;32451;-96
2021/12/31 01:46:57;;;;;;;24.70;12.15;;;;;;;8.28;77.22;99764.66;4280029;33;32988;-96
2021/12/31 01:49:33;;;;;;;28.77;12.85;;;;;;;8.16;76.92;99773.25;4290562;33;33904;-96
2021/12/31 01:52:05;;;;;;;32.47;13.27;;;;;;;7.62;80.07;99759.88;4303047;33;33725;-96
2021/12/31 01:54:56;;;;;;;30.60;13.88;;;;;;;7.20;82.32;99761.28;4325651;33;33100;-96
2021/12/31 01:57:26;;;;;;;26.33;12.13;;;;;;;7.59;81.06;99765.94;4301245;33;34977;-96
2021/12/31 01:59:55;;;;;;;21.92;12.32;;;;;;;8.59;75.78;99763.09;4301995;33;34569;-96
2021/12/31 02:02:24;;;;;;;24.02;12.23;;;;;;;7.67;79.30;99758.22;4291500;33;33717;-96
2021/12/31 02:05:06;;;;;;;36.45;17.00;;;;;;;7.58;80.77;99756.41;4293886;33;32651;-96
2021/12/31 02:07:39;;;;;;;29.50;13.95;;;;;;;7.94;78.42;99754.06;4279497;33;32837;-96
2021/12/31 02:10:09;;;;;;;22.52;12.50;;;;;;;7.68;79.04;99759.97;4302168;33;34022;-96
2021/12/31 02:12:54;;;;;;;26.15;12.20;;;;;;;7.43;80.86;99763.19;4291894;33;33056;-96
2021/12/31 02:15:30;;;;;;;23.17;11.55;;;;;;;7.49;81.06;99774.47;4313989;33;33957;-96
2021/12/31 02:18:21;;;;;;;23.38;11.80;;;;;;;7.62;80.87;99772.00;4305397;33;33147;-96
2021/12/31 02:21:12;;;;;;;23.08;11.77;;;;;;;7.78;80.26;99761.75;4295232;33;33784;-96
2021/12/31 02:23:46;;;;;;;23.00;11.45;;;;;;;8.05;79.97;99754.16;4292216;33;32954;-96
2021/12/31 02:26:15;;;;;;;27.33;12.80;;;;;;;7.92;80.56;99753.19;4291592;33;32276;-96
2021/12/31 02:28:56;;;;;;;27.13;12.15;;;;;;;7.87;81.21;99755.78;4294445;33;32722;-96
2021/12/31 02:31:46;;;;;;;21.25;12.32;;;;;;;8.89;76.45;99751.97;4304623;33;34073;-96
2021/12/31 02:34:35;;;;;;;19.85;10.10;;;;;;;8.83;76.53;99746.75;4295155;33;32743;-96
2021/12/31 02:37:24;;;;;;;24.37;12.23;;;;;;;9.08;74.32;99729.47;4294884;33;32007;-96
2021/12/31 02:40:18;;;;;;;22.10;11.68;;;;;;;7.68;79.40;99739.22;4307450;27;32630;-96
2021/12/31 02:42:47;;;;;;;21.20;11.40;;;;;;;7.94;77.72;99731.63;4290892;33;34139;-96
2021/12/31 02:45:41;;;;;;;20.65;10.27;;;;;;;8.01;77.53;99726.47;4315072;33;33464;-96
2021/12/31 02:48:27;;;;;;;18.05;10.48;;;;;;;7.55;79.89;99732.19;4315646;33;32807;-96
2021/12/31 02:51:38;;;;;;;40.72;14.10;;;;;;;7.77;77.99;99728.06;4301134;33;32254;-96
2021/12/31 02:54:30;;;;;;;17.95;11.75;;;;;;;7.06;79.37;99722.28;4313778;33;33608;-96
2021/12/31 02:56:59;;;;;;;17.87;10.43;;;;;;;7.15;79.77;99721.50;4292096;33;34134;-96
2021/12/31 02:59:50;;;;;;;25.92;11.85;;;;;;;6.75;80.64;99726.28;4307261;33;33399;-96
2021/12/31 03:02:27;;;;;;;24.12;13.02;;;;;;;7.00;79.46;99723.06;4304923;33;33673;-96
2021/12/31 03:05:19;;;;;;;29.33;14.20;;;;;;;7.32;78.28;99714.72;4314502;33;33643;-96
2021/12/31 03:08:10;;;;;;;23.75;11.90;;;;;;;6.80;81.63;99725.47;4320615;27;33028;-96
2021/12/31 03:10:49;;;;;;;24.65;12.20;;;;;;;7.06;80.96;99729.16;4320286;27;32409;-96
2021/12/31 03:13:18;;;;;;;26.65;12.57;;;;;;;6.89;80.59;99716.94;4289720;33;31371;-96
2021/12/31 03:15:47;;;;;;;24.12;12.18;;;;;;;7.11;79.32;99727.50;4302872;33;34209;-96
2021/12/31 03:18:16;;;;;;;33.90;12.55;;;;;;;7.18;78.63;99721.53;4290297;33;34618;-96
2021/12/31 03:21:06;;;;;;;28.38;13.40;;;;;;;6.99;78.30;99718.78;4328975;27;33583;-96
2021/12/31 03:23:43;;;;;;;28.30;14.50;;;;;;;6.86;78.49;99724.66;4326068;33;33789;-96
2021/12/31 03:26:11;;;;;;;37.60;12.85;;;;;;;6.57;79.84;99720.03;4330675;27;35075;-96
2021/12/31 03:28:40;;;;;;;22.50;11.57;;;;;;;6.99;78.77;99704.97;4314345;33;34546;-96
2021/12/31 03:31:11;;;;;;;26.77;12.05;;;;;;;6.56;79.23;99705.34;4291275;33;32936;-96
2021/12/31 03:33:54;;;;;;;26.60;11.55;;;;;;;6.45;79.30;99705.25;4316205;33;34209;-96
2021/12/31 03:36:22;;;;;;;43.53;12.10;;;;;;;6.41;80.77;99705.19;4303399;33;33691;-95
2021/12/31 03:38:53;;;;;;;20.02;10.38;;;;;;;6.77;79.52;99709.03;4289313;33;34340;-96
2021/12/31 03:41:22;;;;;;;20.25;11.50;;;;;;;7.01;80.54;99703.25;4301270;33;33719;-96
2021/12/31 03:43:50;;;;;;;18.27;9.30;;;;;;;7.14;79.81;99699.91;4312197;33;33109;-96
2021/12/31 03:46:20;;;;;;;17.60;10.65;;;;;;;7.12;81.14;99706.81;4300452;33;35427;-96
2021/12/31 03:48:48;;;;;;;20.17;10.73;;;;;;;7.13;80.95;99710.25;4300620;33;32975;-96
2021/12/31 03:51:16;;;;;;;21.60;10.35;;;;;;;7.63;80.30;99715.00;4314390;33;32722;-96
2021/12/31 03:53:45;;;;;;;22.13;10.77;;;;;;;7.38;81.29;99725.16;4313013;33;32891;-96
2021/12/31 03:56:20;;;;;;;22.65;10.95;;;;;;;7.31;81.98;99727.69;4313816;33;34374;-96
2021/12/31 03:58:48;;;;;;;20.05;10.77;;;;;;;6.75;84.91;99727.13;4315801;28;34545;-96
2021/12/31 04:01:16;;;;;;;19.37;11.02;;;;;;;7.25;84.09;99727.63;4323259;33;32187;-96
2021/12/31 04:03:44;;;;;;;18.70;10.75;;;;;;;7.76;80.87;99722.00;4306055;27;33149;-96
2021/12/31 04:06:12;;;;;;;21.10;10.25;;;;;;;7.64;81.06;99732.28;4315317;33;34210;-96
2021/12/31 04:08:41;;;;;;;16.50;8.80;;;;;;;7.48;82.36;99728.72;4315205;33;33415;-96
2021/12/31 04:11:13;;;;;;;18.08;8.25;;;;;;;7.66;82.13;99725.38;4306132;33;32666;-96
2021/12/31 04:13:43;;;;;;;13.00;7.43;;;;;;;7.73;87.25;99718.50;4309471;27;32900;-96
2021/12/31 04:16:46;;;;;;;18.02;7.20;;;;;;;7.74;88.87;99722.84;4334240;33;35216;-96
2021/12/31 04:19:15;;;;;;;17.05;7.93;;;;;;;8.39;89.94;99713.69;4318347;33;34336;-96
2021/12/31 04:22:04;;;;;;;17.05;9.02;;;;;;;8.66;88.30;99718.13;4312154;27;32073;-96
2021/12/31 04:28:00;;;;;;;11.77;7.32;;;;;;;9.29;84.09;99715.66;4349270;27;34793;-96
2021/12/31 04:30:50;;;;;;;17.10;8.10;;;;;;;9.64;83.91;99722.56;4331493;33;33967;-96
2021/12/31 04:33:20;;;;;;;17.52;8.13;;;;;;;9.29;85.54;99712.19;4306508;27;32920;-96
2021/12/31 04:36:08;;;;;;;15.93;7.45;;;;;;;9.73;85.32;99715.66;4294563;33;33165;-96
2021/12/31 04:38:38;;;;;;;12.80;6.97;;;;;;;9.56;85.57;99718.25;4315399;33;34192;-96
2021/12/31 04:41:07;;;;;;;11.70;6.35;;;;;;;9.85;84.26;99723.44;4331876;27;33031;-96
2021/12/31 04:44:08;;;;;;;11.43;6.43;;;;;;;9.96;81.83;99719.06;4324218;33;33992;-96
2021/12/31 04:46:59;;;;;;;15.80;9.98;;;;;;;10.11;78.10;99722.50;4301285;33;34525;-96
2021/12/31 04:50:26;;;;;;;13.75;8.35;;;;;;;8.66;81.73;99727.66;4289474;33;33814;-96
2021/12/31 04:52:57;;;;;;;15.65;9.20;;;;;;;8.63;82.51;99725.03;4279478;33;34406;-96
2021/12/31 04:55:57;;;;;;;17.00;8.75;;;;;;;8.49;83.33;99723.28;4300904;33;31802;-96
2021/12/31 04:58:48;;;;;;;14.75;8.90;;;;;;;8.34;84.27;99724.03;4278464;33;33103;-96
2021/12/31 05:01:48;;;;;;;17.52;7.35;;;;;;;8.73;82.21;99719.03;4305586;28;35227;-96
2021/12/31 05:05:06;;;;;;;11.95;6.80;;;;;;;8.82;82.04;99724.22;4324524;28;33553;-96
2021/12/31 05:08:16;;;;;;;14.73;6.72;;;;;;;8.65;82.65;99726.78;4260951;33;32059;-96
2021/12/31 05:10:44;;;;;;;14.50;7.80;;;;;;;8.69;82.84;99728.53;4275440;33;33585;-96
2021/12/31 05:13:38;;;;;;;14.43;7.68;;;;;;;8.76;82.72;99733.75;4290823;27;34715;-96
2021/12/31 05:16:35;;;;;;;11.60;7.10;;;;;;;8.95;81.75;99729.44;4320889;33;31318;-96
2021/12/31 05:19:44;;;;;;;12.52;7.03;;;;;;;9.05;81.05;99737.28;4355764;27;32011;-96
2021/12/31 05:22:49;;;;;;;14.05;8.38;;;;;;;8.96;81.19;99736.41;4356722;27;32661;-96
2021/12/31 05:26:08;;;;;;;18.77;8.20;;;;;;;8.68;81.74;99741.50;4339127;28;34371;-96
2021/12/31 05:29:09;;;;;;;19.45;10.18;;;;;;;7.78;85.02;99741.03;4323768;33;34743;-96
2021/12/31 05:32:30;;;;;;;21.58;7.60;;;;;;;8.88;80.50;99731.19;4301756;33;20126;-96
2021/12/31 05:36:08;;;;;;;14.98;7.60;;;;;;;8.34;75.36;99743.94;4365346;27;20117;31
2021/12/31 05:40:07;;;;;;;13.82;7.20;;;;;;;7.66;78.19;99746.12;4368421;28;20126;-96
2021/12/31 05:43:47;;;;;;;10.63;6.62;;;;;;;7.43;80.88;99742.47;4411043;28;20134;-96
2021/12/31 05:46:50;;;;;;;;;;;;;;;7.45;81.05;99758.88;4281412;28;32384;-96
2021/12/31 05:50:19;;;;;;;12.57;6.03;;;;;;;6.99;84.39;99748.97;4215459;34;32821;-96
2021/12/31 05:53:26;;;;;;;13.40;7.50;;;;;;;6.92;81.84;99766.16;4250502;33;34804;-96
2021/12/31 05:56:14;;;;;;;11.45;6.68;;;;;;;6.48;85.14;99753.56;4227911;34;32400;-96
2021/12/31 05:59:34;;;;;;;13.45;6.15;;;;;;;6.72;80.83;99762.47;4248930;33;34361;-96
2021/12/31 06:02:33;;;;;;;11.43;7.18;;;;;;;6.01;87.30;99756.38;4280447;33;20110;-96
2021/12/31 06:05:50;;;;;;;10.93;6.47;;;;;;;6.68;86.66;99771.06;4265532;33;20187;-96
2021/12/31 06:08:43;;;;;;;12.00;7.00;;;;;;;5.64;82.58;99767.00;4271854;28;34070;-96
2021/12/31 06:12:12;;;;;;;12.65;6.68;;;;;;;5.52;84.29;99769.38;4249985;33;31484;-96
2021/12/31 06:14:41;;;;;;;15.75;7.37;;;;;;;6.07;84.12;99759.03;4253903;33;33689;-96
2021/12/31 06:17:40;;;;;;;11.02;6.32;;;;;;;5.94;85.13;99764.87;4270380;28;34007;-97
2021/12/31 06:20:43;;;;;;;11.52;6.40;;;;;;;6.02;84.18;99768.47;4274052;27;31270;31
2021/12/31 06:23:25;;;;;;;15.38;6.82;;;;;;;5.65;85.75;99773.91;4359842;27;31679;-96
2021/12/31 06:25:57;;;;;;;14.25;8.02;;;;;;;6.06;85.37;99780.59;4338031;27;32025;-96
2021/12/31 06:28:25;;;;;;;13.38;6.15;;;;;;;5.86;88.98;99783.72;4306927;33;34886;-95
2021/12/31 06:30:56;;;;;;;12.88;7.97;;;;;;;6.36;87.12;99771.53;4293824;33;35089;-96
2021/12/31 06:41:41;;;;;;;7.57;4.10;;;;;;;7.84;91.10;99767.84;4417703;27;20140;-96
2021/12/31 06:45:22;;;;;;;11.70;5.47;;;;;;;8.38;93.68;99771.63;4312687;28;38226;-96
2021/12/31 06:49:16;;;;;;;9.57;5.57;;;;;;;9.04;90.62;99784.91;3648604;28;20272;-95
2021/12/31 06:52:11;;;;;;;8.95;4.85;;;;;;;9.02;92.38;99793.56;4226308;33;30742;-96
2021/12/31 06:54:47;;;;;;;8.15;4.53;;;;;;;9.52;90.91;99795.37;4262957;33;33767;-95
2021/12/31 06:57:15;;;;;;;7.95;4.03;;;;;;;9.67;89.70;99794.50;4296299;27;33501;-96
2021/12/31 06:59:50;;;;;;;7.97;4.75;;;;;;;9.72;89.94;99797.13;4287156;33;32402;-96
2021/12/31 07:02:19;;;;;;;9.07;4.68;;;;;;;10.01;87.69;99800.56;4294688;33;32447;-96
2021/12/31 07:04:49;;;;;;;7.95;4.62;;;;;;;9.88;87.26;99798.84;4288794;33;33816;-95
2021/12/31 07:07:24;;;;;;;8.45;5.25;;;;;;;9.85;88.27;99799.72;4295623;33;34925;-96
2021/12/31 07:10:14;;;;;;;11.27;5.60;;;;;;;9.92;87.19;99804.91;4307704;33;31871;-96
2021/12/31 07:12:44;;;;;;;11.07;6.18;;;;;;;10.21;85.79;99807.47;4297588;33;32589;-96
2021/12/31 07:15:14;;;;;;;10.52;6.22;;;;;;;10.55;81.13;99805.72;4301185;33;34025;-96
2021/12/31 07:17:46;;;;;;;11.18;5.62;;;;;;;11.10;79.96;99821.97;4319241;27;34769;-96
2021/12/31 07:20:14;;;;;;;11.77;5.30;;;;;;;11.56;77.67;99812.13;4327070;27;33373;-96
2021/12/31 07:22:42;;;;;;;10.27;6.10;;;;;;;10.65;79.03;99819.56;4317745;33;34176;-96
2021/12/31 07:25:22;;;;;;;;;;;;;;;10.76;78.55;99828.19;4309541;33;34674;-96
2021/12/31 07:27:53;;;;;;;9.30;5.07;;;;;;;10.59;79.43;99825.66;4332628;27;35060;-96
2021/12/31 07:30:48;;;;;;;10.45;5.60;;;;;;;10.37;80.50;99830.03;4358403;27;33611;-96
2021/12/31 07:33:18;;;;;;;13.10;6.22;;;;;;;10.89;78.74;99822.94;4312026;33;33811;-96
2021/12/31 07:35:47;;;;;;;11.85;6.20;;;;;;;10.64;78.79;99830.81;4311488;33;35045;-96
2021/12/31 07:38:28;;;;;;;7.15;4.45;;;;;;;10.98;79.28;99825.50;4310829;33;33706;-96
2021/12/31 07:40:57;;;;;;;6.82;4.25;;;;;;;10.36;81.89;99828.31;4319740;33;33361;-96
2021/12/31 07:43:30;;;;;;;7.60;4.75;;;;;;;10.19;83.58;99824.84;4297807;33;32372;-96
2021/12/31 07:45:59;;;;;;;8.50;4.03;;;;;;;10.67;82.46;99828.22;4300751;33;35016;-95
2021/12/31 07:48:27;;;;;;;6.22;3.42;;;;;;;10.69;82.41;99821.25;4311094;33;34418;-95
2021/12/31 07:50:57;;;;;;;10.07;5.75;;;;;;;10.97;81.59;99826.37;4312782;33;32373;-96
2021/12/31 07:53:53;;;;;;;11.52;6.50;;;;;;;11.51;79.21;99824.34;4327020;33;34183;-96
2021/12/31 08:00:18;;;;;;;10.68;5.85;;;;;;;11.82;77.06;99828.44;4930049;27;20090;-96
2021/12/31 08:03:50;;;;;;;10.83;6.13;;;;;;;12.53;73.41;99833.94;4428662;27;32129;-96
2021/12/31 08:07:09;;;;;;;11.87;6.60;;;;;;;12.42;73.53;99830.56;4282775;33;34197;-96
2021/12/31 08:10:23;;;;;;;9.02;5.20;;;;;;;12.77;72.29;99832.75;4469377;27;36183;-96
2021/12/31 08:13:23;;;;;;;9.55;4.95;;;;;;;13.01;71.70;99831.59;4323827;33;33484;-96
2021/12/31 08:15:56;;;;;;;7.37;4.65;;;;;;;12.58;73.10;99832.09;4363518;27;34793;-96
2021/12/31 08:18:40;;;;;;;9.55;4.95;;;;;;;13.67;69.41;99827.22;4349090;32;33878;-96
2021/12/31 08:22:22;;;;;;;8.05;4.40;;;;;;;12.80;72.13;99837.09;4339366;28;20111;-96
2021/12/31 08:25:24;;;;;;;9.35;5.00;;;;;;;13.58;69.29;99827.38;4399672;27;34482;-96
2021/12/31 08:28:49;;;;;;;9.68;5.05;;;;;;;13.18;70.74;99848.81;4399296;27;33264;-96
2021/12/31 08:32:35;;;;;;;11.65;6.20;;;;;;;12.86;72.13;99840.50;4321824;27;34007;-96
2021/12/31 08:35:07;;;;;;;9.23;5.45;;;;;;;12.79;72.80;99838.84;4303676;33;34097;-96
2021/12/31 08:37:57;;;;;;;10.40;6.05;;;;;;;12.40;75.16;99847.97;4397479;27;34550;-96
2021/12/31 08:51:45;;;;;;;7.80;3.90;;;;;;;14.81;65.42;99825.22;5134138;27;20051;-96
2021/12/31 08:59:20;;;;;;;6.12;3.58;;;;;;;16.20;60.87;99822.94;4970169;27;20053;31
2021/12/31 09:05:56;;;;;;;7.10;3.87;;;;;;;16.16;60.64;99820.41;4933357;27;20002;31
2021/12/31 09:16:51;;;;;;;6.72;4.05;;;;;;;14.69;65.58;99822.84;4619316;27;35808;-96
2021/12/31 09:19:20;;;;;;;4.70;3.05;;;;;;;14.57;65.92;99827.38;4284485;28;33159;-95
2021/12/31 09:25:16;;;;;;;5.12;3.10;;;;;;;15.28;64.23;99815.50;4446083;27;33569;-96
2021/12/31 09:27:58;;;;;;;6.47;3.30;;;;;;;15.16;63.96;99816.63;4305192;27;33626;31
2021/12/31 09:31:15;;;;;;;5.35;3.12;;;;;;;15.39;63.24;99814.34;4847808;27;20085;-96
2021/12/31 09:34:37;;;;;;;4.70;3.20;;;;;;;14.38;67.12;99805.06;4283627;33;20129;-96
2021/12/31 09:37:05;;;;;;;4.72;3.00;;;;;;;13.96;69.21;99804.94;4272429;33;33504;-96
2021/12/31 09:39:49;;;;;;;4.15;2.40;;;;;;;14.60;66.91;99802.94;4321795;27;34241;-96
2021/12/31 09:42:25;;;;;;;7.18;2.97;;;;;;;14.51;67.72;99809.19;4286070;33;33276;-96
2021/12/31 09:45:00;;;;;;;4.75;2.72;;;;;;;14.19;68.45;99808.03;4287148;33;33260;-96
2021/12/31 09:47:44;;;;;;;5.35;2.35;;;;;;;14.29;68.33;99806.09;4285557;33;34711;-96
2021/12/31 09:50:18;;;;;;;4.62;2.30;;;;;;;14.23;68.57;99809.69;4276871;33;34646;-96
2021/12/31 09:52:47;;;;;;;3.33;2.25;;;;;;;14.62;67.43;99816.88;4300457;33;34353;-96
2021/12/31 09:55:40;;;;;;;3.33;1.67;;;;;;;15.89;64.34;99820.22;4294981;33;32204;-96
2021/12/31 09:58:34;;;;;;;2.72;1.80;;;;;;;17.14;58.57;99822.97;4294089;33;33305;-96
2021/12/31 10:01:09;;;;;;;8.02;2.33;;;;;;;17.45;57.60;99824.66;4290760;33;33828;-96
2021/12/31 10:03:45;;;;;;;4.03;2.20;;;;;;;18.42;54.26;99825.87;4281037;33;34474;-96
2021/12/31 10:06:14;;;;;;;3.17;2.20;;;;;;;18.71;53.99;99825.72;4281184;33;33042;-96
2021/12/31 10:08:49;;;;;;;6.93;2.15;;;;;;;19.00;53.01;99823.78;4304249;33;34431;-96
2021/12/31 10:16:23;;;;;;;6.18;4.30;;;;;;;19.74;50.32;99806.88;4861914;27;21095;-96
2021/12/31 10:19:25;;;;;;;8.50;7.37;;;;;;;21.12;46.93;99799.97;4320739;33;32380;-96
2021/12/31 10:22:43;;;;;;;29.40;18.08;;;;;;;20.75;47.40;99806.97;4340849;27;4844084;-96
2021/12/31 10:26:26;;;;;;;58.60;38.07;;;;;;;20.10;49.08;99807.12;4797757;27;35159;31
2021/12/31 10:30:17;;;;;;;18.15;12.77;;;;;;;20.33;48.18;99802.59;4311165;33;34111;-96
2021/12/31 10:33:09;;;;;;;17.95;8.85;;;;;;;21.05;46.89;99785.31;4456828;27;32309;-96
2021/12/31 10:35:43;;;;;;;4.90;3.07;;;;;;;20.35;48.43;99801.63;4302495;33;33795;-96
2021/12/31 10:38:14;;;;;;;9.77;6.05;;;;;;;20.84;47.13;99803.87;4393908;27;35216;-96
2021/12/31 10:41:10;;;;;;;5.98;3.44;;;;;;;20.33;48.28;99799.97;4459732;27;33203;31
2021/12/31 10:51:39;;;;;;;3.30;1.70;;;;;;;20.92;47.57;99811.50;4721920;27;20073;-96
2021/12/31 10:54:48;;;;;;;8.75;6.43;;;;;;;19.64;49.84;99819.56;4269903;33;32652;-96
2021/12/31 10:57:38;;;;;;;280.37;168.45;;;;;;;19.25;51.45;99807.91;4266064;33;33261;-96
2021/12/31 11:00:11;;;;;;;75.15;48.28;;;;;;;17.95;54.76;99816.94;4259245;33;34130;-96
2021/12/31 11:02:44;;;;;;;8.43;2.80;;;;;;;17.59;56.19;99818.94;4241657;33;33996;-96
2021/12/31 11:05:15;;;;;;;33.30;22.50;;;;;;;17.39;57.46;99806.44;4257435;33;34272;-96
2021/12/31 11:07:45;;;;;;;9.00;6.00;;;;;;;18.28;55.12;99803.53;4266947;33;33058;-95
2021/12/31 11:10:37;;;;;;;25.52;17.05;;;;;;;16.69;59.33;99804.94;4242579;33;33268;-96
2021/12/31 11:13:19;;;;;;;7.40;4.55;;;;;;;16.61;59.48;99806.94;4265456;33;34897;-96
2021/12/31 11:15:50;;;;;;;8.75;5.47;;;;;;;17.00;59.06;99798.84;4245058;33;34175;-95
2021/12/31 11:22:04;;;;;;;3.20;1.70;;;;;;;17.06;59.07;99793.38;4295349;33;34358;-95
2021/12/31 11:24:38;;;;;;;3.78;2.45;;;;;;;16.79;59.37;99789.78;4297463;33;35568;-96
2021/12/31 11:27:42;;;;;;;4.20;2.08;;;;;;;16.35;60.51;99792.75;4300222;33;34364;-94
2021/12/31 11:30:26;;;;;;;4.55;2.35;;;;;;;16.47;60.48;99797.66;4294055;33;32650;-95
2021/12/31 11:33:00;;;;;;;3.78;2.35;;;;;;;16.35;60.64;99794.53;4308600;33;34761;-96
2021/12/31 11:35:49;;;;;;;4.25;2.30;;;;;;;15.92;62.14;99793.88;4309715;33;34727;-95
2021/12/31 11:38:26;;;;;;;6.72;3.00;;;;;;;16.33;60.97;99794.56;4318879;27;34767;-94
2021/12/31 11:41:11;;;;;;;4.55;2.60;;;;;;;16.18;61.98;99787.94;4324753;33;34156;-95
2021/12/31 11:44:07;;;;;;;7.87;3.67;;;;;;;17.43;57.99;99777.31;4306280;27;33251;-96
2021/12/31 11:46:47;;;;;;;11.77;3.75;;;;;;;17.43;58.07;99776.44;4300327;33;32565;-96
2021/12/31 11:49:21;;;;;;;;;;;;;;;16.45;61.51;99786.34;4310157;33;34452;-95
2021/12/31 11:51:58;;;;;;;5.10;2.58;;;;;;;17.66;57.32;99785.38;4298683;33;33281;-94
2021/12/31 11:54:29;;;;;;;7.80;3.97;;;;;;;17.59;57.32;99784.72;4333119;27;33898;-96
2021/12/31 11:56:59;;;;;;;7.10;4.30;;;;;;;17.72;56.37;99782.56;4293194;33;34612;-96
2021/12/31 11:59:54;;;;;;;4.57;3.05;;;;;;;18.24;54.97;99782.59;4304373;33;33751;-96
2021/12/31 12:02:38;;;;;;;4.47;2.80;;;;;;;19.08;51.92;99787.41;4298554;33;31301;-96
2021/12/31 12:05:13;;;;;;;5.07;2.92;;;;;;;18.28;54.37;99782.44;4314009;28;34074;-96
2021/12/31 12:07:52;;;;;;;6.30;3.90;;;;;;;18.25;54.38;99777.25;4306053;28;33943;-96
2021/12/31 12:10:27;;;;;;;4.85;3.05;;;;;;;18.25;55.10;99761.44;4284659;33;32718;-96
2021/12/31 12:13:18;;;;;;;4.68;2.75;;;;;;;18.91;52.99;99772.22;4332350;27;33294;-96
2021/12/31 12:15:52;;;;;;;3.87;2.67;;;;;;;19.08;52.79;99768.94;4308893;33;33020;-95
2021/12/31 12:18:54;;;;;;;6.68;3.20;;;;;;;18.55;54.07;99774.44;4305356;33;34017;-96
2021/12/31 12:21:37;;;;;;;4.32;2.60;;;;;;;18.73;54.55;99778.16;4313349;33;34293;-96
2021/12/31 12:24:31;;;;;;;4.10;2.50;;;;;;;18.60;54.45;99769.84;4302300;33;32531;-96
2021/12/31 12:27:04;;;;;;;4.15;2.40;;;;;;;18.15;55.84;99765.31;4312983;33;32397;-96
2021/12/31 12:29:39;;;;;;;4.40;2.55;;;;;;;19.30;53.07;99765.44;4294089;33;34231;-96
2021/12/31 12:32:12;;;;;;;5.05;2.62;;;;;;;19.63;51.26;99765.88;4317650;33;34498;-96
2021/12/31 12:34:40;;;;;;;5.45;2.78;;;;;;;18.35;54.49;99762.84;4316753;33;33098;-96
2021/12/31 12:37:08;;;;;;;5.10;2.83;;;;;;;18.02;55.96;99764.00;4326054;33;34024;-96
2021/12/31 12:39:37;;;;;;;4.82;2.80;;;;;;;17.38;57.08;99768.72;4291382;33;34759;-96
2021/12/31 12:42:14;;;;;;;3.97;2.60;;;;;;;17.27;57.96;99756.78;4316146;33;33123;-95
2021/12/31 12:45:00;;;;;;;4.03;2.75;;;;;;;16.75;59.26;99761.84;4330082;27;34449;-95
2021/12/31 12:47:29;;;;;;;3.30;2.00;;;;;;;17.66;57.63;99761.69;4311029;33;33475;-95
2021/12/31 12:50:00;;;;;;;5.40;2.80;;;;;;;17.14;58.19;99754.56;4319568;33;34298;-96
2021/12/31 12:52:28;;;;;;;4.90;2.65;;;;;;;16.59;60.30;99756.16;4322183;33;34425;-95
2021/12/31 12:55:14;;;;;;;3.97;2.53;;;;;;;16.80;59.70;99755.53;4310296;33;33389;-96
2021/12/31 12:57:42;;;;;;;;;;;;;;;16.84;59.64;99751.09;4296641;33;32895;-95
2021/12/31 13:00:10;;;;;;;4.72;2.60;;;;;;;16.42;61.19;99752.25;4308709;33;35079;-96
2021/12/31 13:02:45;;;;;;;4.95;2.70;;;;;;;17.05;59.24;99745.16;4308464;33;34590;-96
2021/12/31 13:05:18;;;;;;;5.00;2.92;;;;;;;16.81;59.75;99741.47;4309438;33;33596;-95
2021/12/31 13:07:51;;;;;;;4.07;2.45;;;;;;;15.98;61.60;99738.56;4311102;33;33898;-95
2021/12/31 13:10:24;;;;;;;3.40;2.25;;;;;;;16.52;60.11;99739.72;4325710;33;35242;-96
2021/12/31 13:12:54;;;;;;;5.87;2.60;;;;;;;17.63;56.72;99737.19;4302261;33;34265;-96
2021/12/31 13:15:41;;;;;;;4.65;2.72;;;;;;;16.90;59.48;99729.00;4325142;27;31826;-96
2021/12/31 13:18:10;;;;;;;3.58;2.50;;;;;;;16.65;60.08;99729.69;4312841;33;32821;-96
2021/12/31 13:20:40;;;;;;;3.67;2.40;;;;;;;16.78;59.39;99725.81;4310576;33;34785;-96
2021/12/31 13:23:10;;;;;;;3.97;2.30;;;;;;;16.90;58.57;99718.47;4289666;33;33409;-96
2021/12/31 13:25:48;;;;;;;4.10;2.22;;;;;;;16.05;61.48;99713.00;4302173;33;32475;-96
2021/12/31 13:28:49;;;;;;;3.53;2.30;;;;;;;16.05;61.11;99711.22;4312776;33;34067;-96
2021/12/31 13:31:35;;;;;;;4.68;2.65;;;;;;;15.80;62.21;99715.41;4314010;33;35181;-95
2021/12/31 13:34:16;;;;;;;3.50;2.10;;;;;;;15.92;61.99;99710.69;4311673;33;35187;-95
2021/12/31 13:37:02;;;;;;;3.83;2.37;;;;;;;15.72;62.61;99707.69;4298484;33;34209;-96
2021/12/31 13:39:33;;;;;;;3.73;2.67;;;;;;;15.96;61.83;99705.38;4309383;33;33120;-96
2021/12/31 13:42:09;;;;;;;3.30;2.17;;;;;;;15.76;62.51;99701.50;4299629;33;35053;-96
2021/12/31 13:44:40;;;;;;;4.40;2.12;;;;;;;15.47;63.03;99699.59;4300365;33;34079;-96
2021/12/31 13:47:18;;;;;;;3.78;2.30;;;;;;;15.49;63.08;99696.00;4309410;33;32753;-95
2021/12/31 13:49:51;;;;;;;3.55;2.12;;;;;;;15.42;62.92;99690.97;4323642;33;33818;-96
2021/12/31 13:52:31;;;;;;;3.45;2.22;;;;;;;15.14;63.89;99696.87;4324733;33;35828;-96
2021/12/31 13:55:26;;;;;;;3.78;2.15;;;;;;;15.02;64.51;99698.03;4312827;33;34977;-95
2021/12/31 13:58:00;;;;;;;5.15;2.47;;;;;;;14.81;65.07;99701.13;4324488;33;34914;-96
2021/12/31 14:00:40;;;;;;;3.22;2.20;;;;;;;15.09;64.44;99693.53;4311066;33;32715;-95
2021/12/31 14:03:15;;;;;;;3.72;2.33;;;;;;;14.56;65.71;99705.13;4291885;33;34657;-96
2021/12/31 14:05:58;;;;;;;3.60;2.03;;;;;;;14.81;65.21;99702.00;4308614;33;35771;-94
2021/12/31 14:11:03;;;;;;;5.28;2.40;;;;;;;15.11;64.62;99705.69;4311807;33;33554;-95
2021/12/31 14:13:32;;;;;;;5.57;2.00;;;;;;;14.61;66.03;99697.19;4338701;33;35815;-95
2021/12/31 14:16:02;;;;;;;4.05;2.20;;;;;;;14.19;67.35;99699.78;4326821;33;34078;-96
2021/12/31 14:18:33;;;;;;;13.50;2.65;;;;;;;14.20;67.28;99707.59;4316352;33;33057;-96
2021/12/31 14:21:09;;;;;;;4.43;2.10;;;;;;;13.94;68.53;99713.34;4315097;33;32607;-95
2021/12/31 14:23:48;;;;;;;2.65;1.92;;;;;;;13.97;68.58;99700.19;4325571;27;34285;-96
2021/12/31 14:26:20;;;;;;;4.68;2.20;;;;;;;14.62;66.38;99696.31;4294992;33;34286;-96
2021/12/31 14:28:53;;;;;;;3.62;2.17;;;;;;;14.14;68.03;99697.25;4327589;33;33541;-96